Time;durP1;ratioP1;P1;durP2;ratioP2;P2;SDS_P1;SDS_P2;PMS_P1;PMS_P2;Temp;Humidity;BMP_temperature;BMP_pressure;BME280_temperature;BME280_humidity;BME280_pressure;Samples;Min_cycle;Max_cycle;Signal;HPM_P1;HPM_P2
2023/03/03 08:13:14;;;;;;;;;;;9.00;58.20;;;;;;5092193;28;19912;-75
2023/03/03 08:15:40;;;;;;;;;;;8.90;58.10;;;;;;5091890;28;19913;-74
2023/03/03 08:18:16;;;;;;;;;;;9.00;58.20;;;;;;5091485;28;19908;-74
2023/03/03 08:20:45;;;;;;;;;;;9.00;58.20;;;;;;5091699;28;20334;-74
2023/03/03 08:23:11;;;;;;;;;;;9.00;58.20;;;;;;5089995;28;19908;-75
2023/03/03 08:25:38;;;;;;;;;;;9.00;58.20;;;;;;5107118;28;20003;-74
2023/03/03 08:28:03;;;;;;;;;;;9.00;58.20;;;;;;5091360;28;19909;-74
2023/03/03 08:30:30;;;;;;;;;;;9.00;58.20;;;;;;5091302;28;19916;-74
2023/03/03 08:32:56;;;;;;;;;;;9.00;58.20;;;;;;5091247;28;19964;-75
2023/03/03 08:35:22;;;;;;;;;;;9.00;58.20;;;;;;5090960;28;19908;-74
2023/03/03 08:37:47;;;;;;;;;;;9.00;58.10;;;;;;5091001;28;19909;-74
2023/03/03 08:40:13;;;;;;;;;;;9.10;58.20;;;;;;5091127;28;19959;-74
2023/03/03 08:42:38;;;;;;;;;;;9.10;58.20;;;;;;5090803;28;19932;-75
2023/03/03 08:45:04;;;;;;;;;;;9.10;58.10;;;;;;5089660;28;20354;-75
2023/03/03 08:47:29;;;;;;;;;;;9.10;58.10;;;;;;5091137;28;19909;-75
2023/03/03 08:49:55;;;;;;;;;;;9.20;58.10;;;;;;5091059;28;20278;-75
2023/03/03 08:52:20;;;;;;;;;;;9.20;58.10;;;;;;5091916;28;19916;-74
2023/03/03 08:54:46;;;;;;;;;;;9.20;58.00;;;;;;5091022;28;20415;-74
2023/03/03 08:57:11;;;;;;;;;;;9.30;57.90;;;;;;5091026;28;19908;-76
2023/03/03 08:59:37;;;;;;;;;;;9.30;57.90;;;;;;5089562;28;20273;-75
2023/03/03 09:02:04;;;;;;;;;;;9.30;57.90;;;;;;5090800;28;19962;-75
2023/03/03 09:04:29;;;;;;;;;;;9.40;57.90;;;;;;5090492;28;19979;-74
2023/03/03 09:06:55;;;;;;;;;;;9.40;57.80;;;;;;5089262;28;19916;-74
2023/03/03 09:09:20;;;;;;;;;;;9.40;57.80;;;;;;5090748;28;20341;-74
2023/03/03 09:11:46;;;;;;;;;;;9.40;57.70;;;;;;5090042;28;20035;-74
2023/03/03 09:14:13;;;;;;;;;;;9.50;57.70;;;;;;5090535;28;19908;-75
2023/03/03 09:16:39;;;;;;;;;;;9.50;57.70;;;;;;5089099;28;19909;-74
2023/03/03 09:19:18;;;;;;;;;;;9.50;57.70;;;;;;5090334;28;19908;-75
2023/03/03 09:21:43;;;;;;;;;;;9.50;57.60;;;;;;5090359;28;19965;-74
2023/03/03 09:24:16;;;;;;;;;;;9.60;57.60;;;;;;5078328;28;19999;-73
2023/03/03 09:26:42;;;;;;;;;;;9.60;57.60;;;;;;5077014;28;19919;-75
2023/03/03 09:29:13;;;;;;;;;;;9.60;57.50;;;;;;5076362;28;19908;-74
2023/03/03 09:31:39;;;;;;;;;;;9.60;57.50;;;;;;5076161;28;19920;-74
2023/03/03 09:34:21;;;;;;;;;;;9.60;57.50;;;;;;5076231;28;20277;-75
2023/03/03 09:36:48;;;;;;;;;;;9.60;57.40;;;;;;5076884;28;19913;-74
2023/03/03 09:39:19;;;;;;;;;;;9.60;57.40;;;;;;5076577;28;19909;-75
2023/03/03 09:42:04;;;;;;;;;;;9.60;57.40;;;;;;5074976;28;19944;-75
2023/03/03 09:44:37;;;;;;;;;;;9.60;57.40;;;;;;5076151;28;19915;-74
2023/03/03 09:47:14;;;;;;;;;;;9.70;57.40;;;;;;5076652;28;20354;-74
2023/03/03 09:49:46;;;;;;;;;;;9.70;57.40;;;;;;5076239;28;19912;-75
2023/03/03 09:52:41;;;;;;;;;;;9.70;57.40;;;;;;5074783;28;19916;-74
2023/03/03 09:55:07;;;;;;;;;;;9.70;57.40;;;;;;5061882;28;19920;-74
2023/03/03 09:57:35;;;;;;;;;;;9.70;57.40;;;;;;5076191;28;19916;-74
2023/03/03 10:00:04;;;;;;;;;;;9.60;57.30;;;;;;5076212;28;19915;-75
2023/03/03 10:02:32;;;;;;;;;;;9.70;57.40;;;;;;5076488;28;19908;-75
2023/03/03 10:04:58;;;;;;;;;;;9.70;57.40;;;;;;5076088;28;19909;-74
2023/03/03 10:07:42;;;;;;;;;;;9.70;57.40;;;;;;5075647;28;19909;-75
2023/03/03 10:10:16;;;;;;;;;;;9.70;57.40;;;;;;5075921;28;20346;-74
2023/03/03 10:12:42;;;;;;;;;;;9.70;57.40;;;;;;5075881;28;19924;-74
2023/03/03 10:15:07;;;;;;;;;;;9.70;57.40;;;;;;5074732;28;19908;-74
2023/03/03 10:17:33;;;;;;;;;;;9.70;57.40;;;;;;5075719;28;19913;-76
2023/03/03 10:20:05;;;;;;;;;;;9.70;57.40;;;;;;5075823;28;20273;-74
2023/03/03 10:22:49;;;;;;;;;;;9.70;57.30;;;;;;5075733;28;19908;-73
2023/03/03 10:25:17;;;;;;;;;;;9.70;57.30;;;;;;5074580;28;19955;-74
2023/03/03 10:28:04;;;;;;;;;;;9.70;57.30;;;;;;5075366;28;19908;-75
2023/03/03 10:30:39;;;;;;;;;;;9.70;57.20;;;;;;5075026;28;20385;-75
2023/03/03 10:33:07;;;;;;;;;;;9.70;57.20;;;;;;5075371;28;19923;-75
2023/03/03 10:35:33;;;;;;;;;;;9.80;57.20;;;;;;5074380;28;19913;-74
2023/03/03 10:37:58;;;;;;;;;;;9.80;57.30;;;;;;5075239;28;19908;-75
2023/03/03 10:40:39;;;;;;;;;;;9.80;57.20;;;;;;5075230;28;20086;-74
2023/03/03 10:43:23;;;;;;;;;;;9.80;57.20;;;;;;5075000;28;19909;-75
2023/03/03 10:46:07;;;;;;;;;;;9.80;57.20;;;;;;5075009;28;19908;-74
2023/03/03 10:48:40;;;;;;;;;;;9.80;57.10;;;;;;5075515;28;20278;-74
2023/03/03 10:51:12;;;;;;;;;;;9.80;57.10;;;;;;5074955;28;19927;-75
2023/03/03 10:53:40;;;;;;;;;;;9.80;57.10;;;;;;5075231;28;19908;-75
2023/03/03 10:56:11;;;;;;;;;;;9.80;57.10;;;;;;5074870;28;19915;-74
2023/03/03 10:58:56;;;;;;;;;;;9.80;57.10;;;;;;5075038;28;19995;-75
2023/03/03 11:01:25;;;;;;;;;;;9.80;57.10;;;;;;5073480;28;19908;-76
2023/03/03 11:04:02;;;;;;;;;;;9.80;57.10;;;;;;5075236;28;19909;-76
2023/03/03 11:06:46;;;;;;;;;;;9.70;57.10;;;;;;5075195;28;19908;-74
2023/03/03 11:09:15;;;;;;;;;;;9.70;57.10;;;;;;5074779;28;19912;-74
2023/03/03 11:11:45;;;;;;;;;;;9.70;57.10;;;;;;5074431;28;19924;-75
2023/03/03 11:14:25;;;;;;;;;;;9.70;57.20;;;;;;5073336;28;19908;-76
2023/03/03 11:16:54;;;;;;;;;;;9.60;57.20;;;;;;5074948;28;19947;-75
2023/03/03 11:19:38;;;;;;;;;;;9.70;57.30;;;;;;5075999;28;19908;-75
2023/03/03 11:22:09;;;;;;;;;;;9.60;57.20;;;;;;5075628;28;19930;-74
2023/03/03 11:24:55;;;;;;;;;;;9.60;57.30;;;;;;5074607;28;19908;-74
2023/03/03 11:27:29;;;;;;;;;;;9.60;57.40;;;;;;5053043;28;19909;-75
2023/03/03 11:30:15;;;;;;;;;;;9.50;57.30;;;;;;5074284;28;20362;-75
2023/03/03 11:33:00;;;;;;;;;;;9.50;57.30;;;;;;5075075;28;20266;-75
2023/03/03 11:35:29;;;;;;;;;;;9.50;57.40;;;;;;5073425;28;19965;-74
2023/03/03 11:37:58;;;;;;;;;;;9.50;58.00;;;;;;5074395;28;19954;-74
2023/03/03 11:40:25;;;;;;;;;;;9.50;57.40;;;;;;5074242;28;19908;-74
2023/03/03 11:43:00;;;;;;;;;;;9.50;57.40;;;;;;5074328;28;19995;-76
2023/03/03 11:45:32;;;;;;;;;;;9.40;57.40;;;;;;5072685;28;19947;-74
2023/03/03 11:48:17;;;;;;;;;;;9.40;57.40;;;;;;5074347;28;19908;-75
2023/03/03 11:50:52;;;;;;;;;;;9.40;57.40;;;;;;5074230;28;19962;-74
2023/03/03 11:53:21;;;;;;;;;;;9.40;57.40;;;;;;5072992;28;20378;-75
2023/03/03 11:55:48;;;;;;;;;;;9.50;57.50;;;;;;5074328;28;19912;-74
2023/03/03 11:58:30;;;;;;;;;;;9.50;57.50;;;;;;5073569;28;19908;-74
2023/03/03 12:01:01;;;;;;;;;;;9.40;57.50;;;;;;5074169;28;20370;-74
2023/03/03 12:03:35;;;;;;;;;;;9.50;57.60;;;;;;5072975;28;19916;-75
2023/03/03 12:06:00;;;;;;;;;;;9.50;57.50;;;;;;5074195;28;19908;-74
2023/03/03 12:08:45;;;;;;;;;;;9.50;57.50;;;;;;5074376;28;20337;-74
2023/03/03 12:11:21;;;;;;;;;;;9.50;57.40;;;;;;5073855;28;20015;-74
2023/03/03 12:13:53;;;;;;;;;;;9.50;57.40;;;;;;5074024;28;19912;-74
2023/03/03 12:16:41;;;;;;;;;;;9.60;57.60;;;;;;5074017;28;19909;-74
2023/03/03 12:19:16;;;;;;;;;;;9.60;57.40;;;;;;5054192;28;19935;-75
2023/03/03 12:21:53;;;;;;;;;;;9.60;57.40;;;;;;5073683;28;19908;-75
2023/03/03 12:24:21;;;;;;;;;;;9.60;57.40;;;;;;5073871;28;19912;-75
2023/03/03 12:26:53;;;;;;;;;;;9.60;57.40;;;;;;5072354;28;19923;-76
2023/03/03 12:29:48;;;;;;;;;;;9.60;58.00;;;;;;5073384;28;19999;-74
2023/03/03 12:32:33;;;;;;;;;;;9.60;57.30;;;;;;5072663;28;20251;-75
2023/03/03 12:35:05;;;;;;;;;;;9.60;57.30;;;;;;5073754;28;19909;-74
2023/03/03 12:37:36;;;;;;;;;;;9.70;57.30;;;;;;5073843;28;19915;-74
2023/03/03 12:40:07;;;;;;;;;;;9.70;57.30;;;;;;5074068;28;19909;-75
2023/03/03 12:42:39;;;;;;;;;;;9.70;57.20;;;;;;5073646;28;19916;-74
2023/03/03 12:45:16;;;;;;;;;;;9.60;57.20;;;;;;5073781;28;19982;-75
2023/03/03 12:47:48;;;;;;;;;;;9.60;57.20;;;;;;5072021;28;19915;-75
2023/03/03 12:50:24;;;;;;;;;;;9.60;57.20;;;;;;5073659;28;19914;-73
2023/03/03 12:52:49;;;;;;;;;;;9.70;57.30;;;;;;5073513;28;20019;-76
2023/03/03 12:55:17;;;;;;;;;;;9.60;57.30;;;;;;5073542;28;20421;-75
2023/03/03 12:57:46;;;;;;;;;;;9.60;57.20;;;;;;5073701;28;19909;-75
2023/03/03 13:00:37;;;;;;;;;;;9.60;57.20;;;;;;5077288;28;19991;-75
2023/03/03 13:03:16;;;;;;;;;;;9.60;57.20;;;;;;5061107;28;19908;-74
2023/03/03 13:06:04;;;;;;;;;;;9.60;57.20;;;;;;5077228;28;19912;-75
2023/03/03 13:08:50;;;;;;;;;;;9.60;57.30;;;;;;5076979;28;19909;-75
2023/03/03 13:11:22;;;;;;;;;;;9.60;57.20;;;;;;5076364;28;19924;-76
2023/03/03 13:14:09;;;;;;;;;;;9.60;57.20;;;;;;5077470;28;19952;-74
2023/03/03 13:16:43;;;;;;;;;;;9.60;57.20;;;;;;5076904;28;19908;-75
2023/03/03 13:19:15;;;;;;;;;;;9.60;57.30;;;;;;5075452;28;20090;-74
2023/03/03 13:21:48;;;;;;;;;;;9.60;57.30;;;;;;5077096;28;19909;-74
2023/03/03 13:24:26;;;;;;;;;;;9.50;57.20;;;;;;5076776;28;19908;-74
2023/03/03 13:26:57;;;;;;;;;;;9.50;57.30;;;;;;5077211;28;20377;-75
2023/03/03 13:29:52;;;;;;;;;;;9.50;57.30;;;;;;5076443;28;20316;-75
2023/03/03 13:32:19;;;;;;;;;;;9.50;57.30;;;;;;5067826;28;19970;-74
2023/03/03 13:34:45;;;;;;;;;;;9.50;57.40;;;;;;5075448;28;19909;-75
2023/03/03 13:37:14;;;;;;;;;;;9.40;57.30;;;;;;5076728;28;19917;-75
2023/03/03 13:39:48;;;;;;;;;;;9.40;57.40;;;;;;5076884;28;19909;-75
2023/03/03 13:42:28;;;;;;;;;;;9.40;57.40;;;;;;5076510;28;19916;-75
2023/03/03 13:44:53;;;;;;;;;;;9.40;57.40;;;;;;5077362;28;19923;-74
2023/03/03 13:47:26;;;;;;;;;;;9.40;57.50;;;;;;5076741;28;19908;-74
2023/03/03 13:50:00;;;;;;;;;;;9.40;57.50;;;;;;5075154;28;19909;-75
2023/03/03 13:52:27;;;;;;;;;;;9.30;57.40;;;;;;5075294;28;19923;-74
2023/03/03 13:55:12;;;;;;;;;;;9.30;57.50;;;;;;5075392;28;20346;-74
2023/03/03 13:57:38;;;;;;;;;;;9.30;57.50;;;;;;5075968;28;19909;-74
2023/03/03 14:00:03;;;;;;;;;;;9.30;57.60;;;;;;5076306;28;19915;-74
2023/03/03 14:02:42;;;;;;;;;;;9.30;57.60;;;;;;5075135;28;20391;-74
2023/03/03 14:05:12;;;;;;;;;;;9.30;57.60;;;;;;5076345;28;19927;-74
2023/03/03 14:07:41;;;;;;;;;;;9.30;57.60;;;;;;5075964;28;19966;-74
2023/03/03 14:10:11;;;;;;;;;;;9.20;57.60;;;;;;5075799;28;19912;-74
2023/03/03 14:12:41;;;;;;;;;;;9.20;57.60;;;;;;5075750;28;19978;-74
2023/03/03 14:15:22;;;;;;;;;;;9.30;57.70;;;;;;5075685;28;19995;-75
2023/03/03 14:18:02;;;;;;;;;;;9.20;57.70;;;;;;5076105;28;19909;-74
2023/03/03 14:20:33;;;;;;;;;;;9.20;57.70;;;;;;5075826;28;20274;-75
2023/03/03 14:23:03;;;;;;;;;;;9.20;57.70;;;;;;5074310;28;20332;-74
2023/03/03 14:25:47;;;;;;;;;;;9.20;57.70;;;;;;5075938;28;19909;-74
2023/03/03 14:28:21;;;;;;;;;;;9.20;57.70;;;;;;5069551;28;19909;-75
2023/03/03 14:30:46;;;;;;;;;;;9.10;57.70;;;;;;5073720;28;19989;-73
2023/03/03 14:33:12;;;;;;;;;;;9.10;57.70;;;;;;5074448;28;19920;-72
2023/03/03 14:35:38;;;;;;;;;;;9.10;57.70;;;;;;5072627;28;19909;-71
2023/03/03 14:38:09;;;;;;;;;;;9.10;57.80;;;;;;5074511;28;19912;-71
2023/03/03 14:40:37;;;;;;;;;;;9.10;57.80;;;;;;5072624;28;19912;-72
2023/03/03 14:43:22;;;;;;;;;;;9.10;57.80;;;;;;5074412;28;19909;-73
2023/03/03 14:45:47;;;;;;;;;;;9.10;57.80;;;;;;5074479;28;19966;-73
2023/03/03 14:48:12;;;;;;;;;;;9.10;57.80;;;;;;5072891;28;19948;-73
2023/03/03 14:50:39;;;;;;;;;;;9.10;57.80;;;;;;5072216;28;19916;-74
2023/03/03 14:53:19;;;;;;;;;;;9.00;57.70;;;;;;5073978;28;19939;-73
2023/03/03 14:55:49;;;;;;;;;;;9.10;57.80;;;;;;5074377;28;20281;-72
2023/03/03 14:58:27;;;;;;;;;;;9.00;57.80;;;;;;5074657;28;19909;-74
2023/03/03 15:01:11;;;;;;;;;;;9.00;57.80;;;;;;5073397;28;19913;-74
2023/03/03 15:03:37;;;;;;;;;;;9.00;57.90;;;;;;5072922;28;19912;-75
2023/03/03 15:06:11;;;;;;;;;;;9.00;57.90;;;;;;5074162;28;19953;-75
2023/03/03 15:08:37;;;;;;;;;;;9.00;58.00;;;;;;5072577;28;20005;-73
2023/03/03 15:11:24;;;;;;;;;;;8.90;58.00;;;;;;5073106;28;19931;-72
2023/03/03 15:13:49;;;;;;;;;;;8.90;58.00;;;;;;5074005;28;19913;-74
2023/03/03 15:16:16;;;;;;;;;;;8.90;58.00;;;;;;5073884;28;19931;-75
2023/03/03 15:18:51;;;;;;;;;;;8.90;58.00;;;;;;5073560;28;20006;-73
2023/03/03 15:21:19;;;;;;;;;;;8.90;58.10;;;;;;5072700;28;19912;-72
2023/03/03 15:24:08;;;;;;;;;;;8.90;58.10;;;;;;5073603;28;19908;-72
2023/03/03 15:26:55;;;;;;;;;;;8.80;58.10;;;;;;5070285;28;19909;-73
2023/03/03 15:29:44;;;;;;;;;;;8.80;58.10;;;;;;5071977;28;19966;-73
2023/03/03 15:32:24;;;;;;;;;;;8.80;58.10;;;;;;5071845;28;20357;-72
2023/03/03 15:34:58;;;;;;;;;;;8.80;58.10;;;;;;5072182;28;19919;-72
2023/03/03 15:37:24;;;;;;;;;;;8.80;58.80;;;;;;5073571;28;19908;-74
2023/03/03 15:40:08;;;;;;;;;;;8.80;58.20;;;;;;5073433;28;19915;-74
2023/03/03 15:42:40;;;;;;;;;;;8.80;58.20;;;;;;5072751;28;19954;-73
2023/03/03 15:45:25;;;;;;;;;;;8.80;58.20;;;;;;5073104;28;20341;-74
2023/03/03 15:47:53;;;;;;;;;;;8.70;58.20;;;;;;5073179;28;19908;-72
2023/03/03 15:50:19;;;;;;;;;;;8.80;58.30;;;;;;5071898;28;19909;-71
2023/03/03 15:52:51;;;;;;;;;;;8.80;58.30;;;;;;5072598;28;19919;-74
2023/03/03 15:55:26;;;;;;;;;;;8.70;58.20;;;;;;5072950;28;20267;-73
2023/03/03 15:58:07;;;;;;;;;;;8.70;58.30;;;;;;5073325;28;19909;-72
2023/03/03 16:00:51;;;;;;;;;;;8.70;58.30;;;;;;5072778;28;19908;-71
2023/03/03 16:03:19;;;;;;;;;;;8.70;58.30;;;;;;5072723;28;19935;-73
2023/03/03 16:05:51;;;;;;;;;;;8.70;58.30;;;;;;5072684;28;19977;-76
2023/03/03 16:08:20;;;;;;;;;;;8.70;58.30;;;;;;5072973;28;19954;-71
2023/03/03 16:11:04;;;;;;;;;;;8.70;58.40;;;;;;5070782;28;19931;-72
2023/03/03 16:13:36;;;;;;;;;;;8.70;58.40;;;;;;5071849;28;19923;-72
2023/03/03 16:16:04;;;;;;;;;;;8.70;59.00;;;;;;5073969;28;20355;-73
2023/03/03 16:18:48;;;;;;;;;;;8.70;58.40;;;;;;5072027;28;19913;-72
2023/03/03 16:21:13;;;;;;;;;;;8.70;58.40;;;;;;5073838;28;19908;-72
2023/03/03 16:23:39;;;;;;;;;;;8.70;58.40;;;;;;5073906;28;20243;-72
2023/03/03 16:26:23;;;;;;;;;;;8.70;58.40;;;;;;5073788;28;20251;-73
2023/03/03 16:28:54;;;;;;;;;;;8.70;58.40;;;;;;5073916;28;20368;-71
2023/03/03 16:31:36;;;;;;;;;;;8.60;58.40;;;;;;5073615;28;19912;-72
2023/03/03 16:34:05;;;;;;;;;;;8.60;58.40;;;;;;5076155;28;19919;-72
2023/03/03 16:36:49;;;;;;;;;;;8.70;58.50;;;;;;5077840;28;19909;-72
2023/03/03 16:39:17;;;;;;;;;;;8.60;58.40;;;;;;5077700;28;19912;-72
2023/03/03 16:41:48;;;;;;;;;;;8.60;58.40;;;;;;5077845;28;19908;-72
2023/03/03 16:44:27;;;;;;;;;;;8.60;58.50;;;;;;5077788;28;19908;-72
2023/03/03 16:46:57;;;;;;;;;;;8.60;58.40;;;;;;5076061;28;20338;-71
2023/03/03 16:49:51;;;;;;;;;;;8.60;58.50;;;;;;5075989;28;20377;-72
2023/03/03 16:52:22;;;;;;;;;;;8.60;58.50;;;;;;5068161;28;19955;-73
2023/03/03 16:54:56;;;;;;;;;;;8.60;58.50;;;;;;5077413;28;19912;-73
2023/03/03 16:57:24;;;;;;;;;;;8.60;58.50;;;;;;5077385;28;19962;-72
2023/03/03 17:00:05;;;;;;;;;;;8.60;58.50;;;;;;5077182;28;19962;-72
2023/03/03 17:02:31;;;;;;;;;;;8.60;58.50;;;;;;5077586;28;20317;-73
2023/03/03 17:05:15;;;;;;;;;;;8.60;58.50;;;;;;5077154;28;19966;-73
2023/03/03 17:08:14;;;;;;;;;;;8.60;58.50;;;;;;5076985;28;20289;-72
2023/03/03 17:10:44;;;;;;;;;;;8.60;58.50;;;;;;5053641;28;20015;-72
2023/03/03 17:13:10;;;;;;;;;;;8.60;58.50;;;;;;5077183;28;19919;-73
2023/03/03 17:15:41;;;;;;;;;;;8.60;58.50;;;;;;5077276;28;20003;-72
2023/03/03 17:18:10;;;;;;;;;;;8.60;58.50;;;;;;5077044;28;19950;-72
2023/03/03 17:20:45;;;;;;;;;;;8.60;58.60;;;;;;5076717;28;19951;-73
2023/03/03 17:23:19;;;;;;;;;;;8.60;58.60;;;;;;5077041;28;20014;-72
2023/03/03 17:26:00;;;;;;;;;;;8.60;58.50;;;;;;5077060;28;19914;-73
2023/03/03 17:28:35;;;;;;;;;;;8.60;58.60;;;;;;5075524;28;19908;-72
2023/03/03 17:31:19;;;;;;;;;;;8.60;58.60;;;;;;5076745;28;19908;-72
2023/03/03 17:33:50;;;;;;;;;;;8.60;58.60;;;;;;5076727;28;19958;-73
2023/03/03 17:36:18;;;;;;;;;;;8.60;58.60;;;;;;5076736;28;19908;-72
2023/03/03 17:38:49;;;;;;;;;;;8.60;58.60;;;;;;5076716;28;19909;-72
2023/03/03 17:41:34;;;;;;;;;;;8.60;58.60;;;;;;5076662;28;19912;-72
2023/03/03 17:43:59;;;;;;;;;;;8.60;58.60;;;;;;5076010;28;19909;-72
2023/03/03 17:46:28;;;;;;;;;;;8.60;58.60;;;;;;5075207;28;19915;-74
2023/03/03 17:49:05;;;;;;;;;;;8.60;58.60;;;;;;5076268;28;19913;-72
2023/03/03 17:51:49;;;;;;;;;;;8.60;58.60;;;;;;5076055;28;19913;-72
2023/03/03 17:54:20;;;;;;;;;;;8.60;58.60;;;;;;5076223;28;19913;-73
2023/03/03 17:56:46;;;;;;;;;;;8.60;58.60;;;;;;5076420;28;19909;-72
2023/03/03 17:59:16;;;;;;;;;;;8.60;58.60;;;;;;5075110;28;19955;-72
2023/03/03 18:01:48;;;;;;;;;;;8.60;58.60;;;;;;5076422;28;19908;-72
2023/03/03 18:04:28;;;;;;;;;;;8.60;58.60;;;;;;5076250;28;20027;-73
2023/03/03 18:07:12;;;;;;;;;;;8.60;58.60;;;;;;5076124;28;20262;-72
2023/03/03 18:09:38;;;;;;;;;;;8.60;58.60;;;;;;5075831;28;19970;-72
2023/03/03 18:12:16;;;;;;;;;;;8.60;58.60;;;;;;5075798;28;20057;-72
2023/03/03 18:14:41;;;;;;;;;;;8.60;58.60;;;;;;5075673;28;19911;-72
2023/03/03 18:17:13;;;;;;;;;;;8.60;58.60;;;;;;5075620;28;19983;-72
2023/03/03 18:20:00;;;;;;;;;;;8.60;58.60;;;;;;5075589;28;19908;-72
2023/03/03 18:22:33;;;;;;;;;;;8.60;58.70;;;;;;5075773;28;19988;-73
2023/03/03 18:25:18;;;;;;;;;;;8.60;58.70;;;;;;5075574;28;20011;-72
2023/03/03 18:28:06;;;;;;;;;;;8.60;58.70;;;;;;5075966;28;19908;-73
2023/03/03 18:30:51;;;;;;;;;;;8.60;58.70;;;;;;5075462;28;19920;-73
2023/03/03 18:33:30;;;;;;;;;;;8.60;58.70;;;;;;5075357;28;19924;-72
2023/03/03 18:36:07;;;;;;;;;;;8.60;58.70;;;;;;5075676;28;20011;-72
2023/03/03 18:38:35;;;;;;;;;;;8.60;58.70;;;;;;5074830;28;19955;-72
2023/03/03 18:41:00;;;;;;;;;;;8.60;58.70;;;;;;5075808;28;19908;-73
2023/03/03 18:43:39;;;;;;;;;;;8.60;58.70;;;;;;5075539;28;19912;-73
2023/03/03 18:46:08;;;;;;;;;;;8.60;58.70;;;;;;5075032;28;19908;-74
2023/03/03 18:48:45;;;;;;;;;;;8.60;58.70;;;;;;5075263;28;20369;-73
2023/03/03 18:51:11;;;;;;;;;;;8.60;58.70;;;;;;5075293;28;20373;-73
2023/03/03 18:53:36;;;;;;;;;;;8.50;58.60;;;;;;5073763;28;19912;-73
2023/03/03 18:56:08;;;;;;;;;;;8.60;58.70;;;;;;5074190;28;19930;-72
2023/03/03 18:58:33;;;;;;;;;;;8.60;58.80;;;;;;5074771;28;19908;-73
2023/03/03 19:01:01;;;;;;;;;;;8.50;58.60;;;;;;5075042;28;19916;-73
2023/03/03 19:03:29;;;;;;;;;;;8.50;58.70;;;;;;5074928;28;19913;-71
2023/03/03 19:05:59;;;;;;;;;;;8.50;58.70;;;;;;5074907;28;19908;-73
2023/03/03 19:08:29;;;;;;;;;;;8.60;58.70;;;;;;5073686;28;19912;-73
2023/03/03 19:10:59;;;;;;;;;;;8.60;58.70;;;;;;5072088;28;19924;-72
2023/03/03 19:13:33;;;;;;;;;;;8.60;58.70;;;;;;5074584;28;20309;-73
2023/03/03 19:16:00;;;;;;;;;;;8.60;58.70;;;;;;5074469;28;19913;-73
2023/03/03 19:18:26;;;;;;;;;;;8.50;58.70;;;;;;5074565;28;20286;-73
2023/03/03 19:20:55;;;;;;;;;;;8.60;58.70;;;;;;5074469;28;20269;-73
2023/03/03 19:23:39;;;;;;;;;;;8.60;58.70;;;;;;5074657;28;20320;-73
2023/03/03 19:26:23;;;;;;;;;;;8.60;58.70;;;;;;5074301;28;19908;-73
2023/03/03 19:28:59;;;;;;;;;;;8.50;58.70;;;;;;5074883;28;20346;-73
2023/03/03 19:31:27;;;;;;;;;;;8.60;58.70;;;;;;5074339;28;20322;-72
2023/03/03 19:33:58;;;;;;;;;;;8.60;58.80;;;;;;5074334;28;19912;-72
2023/03/03 19:36:23;;;;;;;;;;;8.60;58.80;;;;;;5075182;28;19908;-72
2023/03/03 19:38:49;;;;;;;;;;;8.50;58.70;;;;;;5074222;28;20428;-72
2023/03/03 19:41:33;;;;;;;;;;;8.50;58.70;;;;;;5074222;28;19959;-73
2023/03/03 19:44:05;;;;;;;;;;;8.50;58.70;;;;;;5074511;28;19995;-73
2023/03/03 19:46:34;;;;;;;;;;;8.60;58.80;;;;;;5073999;28;20316;-73
2023/03/03 19:49:18;;;;;;;;;;;8.60;58.80;;;;;;5074203;28;19916;-72
2023/03/03 19:51:49;;;;;;;;;;;8.60;58.80;;;;;;5074358;28;19917;-72
2023/03/03 19:54:15;;;;;;;;;;;8.60;58.80;;;;;;5073989;28;19947;-72
2023/03/03 19:56:46;;;;;;;;;;;8.50;58.70;;;;;;5074202;28;19967;-72
2023/03/03 19:59:15;;;;;;;;;;;8.60;58.80;;;;;;5074043;28;20419;-72
2023/03/03 20:01:44;;;;;;;;;;;8.50;58.70;;;;;;5074074;28;19909;-71
2023/03/03 20:04:09;;;;;;;;;;;8.60;58.80;;;;;;5074166;28;19916;-72
2023/03/03 20:06:47;;;;;;;;;;;8.60;58.80;;;;;;5074018;28;20282;-72
2023/03/03 20:09:13;;;;;;;;;;;8.60;58.80;;;;;;5074085;28;19966;-76
2023/03/03 20:12:01;;;;;;;;;;;8.60;59.40;;;;;;5073782;28;19964;-75
2023/03/03 20:14:29;;;;;;;;;;;8.60;58.80;;;;;;5073980;28;19920;-72
2023/03/03 20:17:00;;;;;;;;;;;8.60;58.80;;;;;;5074373;28;20346;-74
2023/03/03 20:19:41;;;;;;;;;;;8.60;58.80;;;;;;5072637;28;19909;-72
2023/03/03 20:22:07;;;;;;;;;;;8.50;58.70;;;;;;5073813;28;19990;-75
2023/03/03 20:24:51;;;;;;;;;;;8.60;58.80;;;;;;5073779;28;19908;-76
2023/03/03 20:27:18;;;;;;;;;;;8.60;58.80;;;;;;5073376;28;19912;-74
2023/03/03 20:29:44;;;;;;;;;;;8.60;58.80;;;;;;5073849;28;20409;-75
2023/03/03 20:32:12;;;;;;;;;;;8.60;58.80;;;;;;5073846;28;19963;-74
2023/03/03 20:34:51;;;;;;;;;;;8.60;58.80;;;;;;5073524;28;20475;-74
2023/03/03 20:37:21;;;;;;;;;;;8.60;58.80;;;;;;5072955;28;20270;-75
2023/03/03 20:39:55;;;;;;;;;;;8.60;58.80;;;;;;5072776;28;19916;-74
2023/03/03 20:42:33;;;;;;;;;;;8.60;58.80;;;;;;5073913;28;19908;-76
2023/03/03 20:45:13;;;;;;;;;;;8.60;58.80;;;;;;5066579;28;20008;-77
2023/03/03 20:47:49;;;;;;;;;;;8.60;58.80;;;;;;5062625;28;19913;-75
2023/03/03 20:50:27;;;;;;;;;;;8.60;58.80;;;;;;5072414;28;19916;-74
2023/03/03 20:52:55;;;;;;;;;;;8.60;58.80;;;;;;5074030;28;19924;-75
2023/03/03 20:55:26;;;;;;;;;;;8.60;58.80;;;;;;5073402;28;19916;-76
2023/03/03 20:57:51;;;;;;;;;;;8.60;58.80;;;;;;5074715;28;19916;-74
2023/03/03 21:00:23;;;;;;;;;;;8.60;58.80;;;;;;5074372;28;19913;-74
2023/03/03 21:03:10;;;;;;;;;;;8.60;58.80;;;;;;5073703;28;20431;-77
2023/03/03 21:05:52;;;;;;;;;;;8.60;58.80;;;;;;5072300;28;19915;-77
2023/03/03 21:08:17;;;;;;;;;;;8.60;58.80;;;;;;5074077;28;20058;-77
2023/03/03 21:10:54;;;;;;;;;;;8.60;58.70;;;;;;5073018;28;20026;-76
2023/03/03 21:13:32;;;;;;;;;;;8.60;58.80;;;;;;5072490;28;19917;-77
2023/03/03 21:16:02;;;;;;;;;;;8.60;58.80;;;;;;5072128;28;19915;-77
2023/03/03 21:18:28;;;;;;;;;;;8.60;58.80;;;;;;5073404;28;20015;-77
2023/03/03 21:20:53;;;;;;;;;;;8.60;58.80;;;;;;5077396;28;19997;-77
2023/03/03 21:23:19;;;;;;;;;;;8.60;58.80;;;;;;5076922;28;19916;-77
2023/03/03 21:25:55;;;;;;;;;;;8.60;58.80;;;;;;5076802;28;19909;-77
2023/03/03 21:28:22;;;;;;;;;;;8.60;58.80;;;;;;5076716;28;19931;-77
2023/03/03 21:30:58;;;;;;;;;;;8.60;58.80;;;;;;5076721;28;19912;-76
2023/03/03 21:33:46;;;;;;;;;;;8.60;58.80;;;;;;5076784;28;19916;-78
2023/03/03 21:36:14;;;;;;;;;;;8.50;58.70;;;;;;5070823;28;20018;-77
2023/03/03 21:38:39;;;;;;;;;;;8.50;58.70;;;;;;5076602;28;20338;-77
2023/03/03 21:41:05;;;;;;;;;;;8.60;58.80;;;;;;5076394;28;19915;-76
2023/03/03 21:43:35;;;;;;;;;;;8.50;58.80;;;;;;5076551;28;19963;-74
2023/03/03 21:46:01;;;;;;;;;;;8.50;58.70;;;;;;5076594;28;19909;-76
2023/03/03 21:48:26;;;;;;;;;;;8.50;58.80;;;;;;5076426;28;20261;-78
2023/03/03 21:50:52;;;;;;;;;;;8.50;58.80;;;;;;5076497;28;20409;-78
2023/03/03 21:53:19;;;;;;;;;;;8.50;58.80;;;;;;5076181;28;20338;-78
2023/03/03 21:55:47;;;;;;;;;;;8.50;58.80;;;;;;5076159;28;19908;-76
2023/03/03 21:58:13;;;;;;;;;;;8.50;58.70;;;;;;5076968;28;19909;-76
2023/03/03 22:00:39;;;;;;;;;;;8.50;58.70;;;;;;5076533;28;19970;-76
2023/03/03 22:03:04;;;;;;;;;;;8.50;58.80;;;;;;5074911;28;19909;-76
2023/03/03 22:05:30;;;;;;;;;;;8.50;58.70;;;;;;5075022;28;19912;-77
2023/03/03 22:07:55;;;;;;;;;;;8.50;58.80;;;;;;5076138;28;20007;-77
2023/03/03 22:10:21;;;;;;;;;;;8.50;58.80;;;;;;5076283;28;19997;-75
2023/03/03 22:12:46;;;;;;;;;;;8.50;58.80;;;;;;5076861;28;20404;-76
2023/03/03 22:15:12;;;;;;;;;;;8.50;58.80;;;;;;5076079;28;19908;-77
2023/03/03 22:17:39;;;;;;;;;;;8.50;58.80;;;;;;5076126;28;19909;-76
2023/03/03 22:20:05;;;;;;;;;;;8.50;58.80;;;;;;5072005;28;19912;-75
2023/03/03 22:22:30;;;;;;;;;;;8.50;58.80;;;;;;5060576;28;19963;-77
2023/03/03 22:24:56;;;;;;;;;;;8.50;58.80;;;;;;5055776;28;19919;-77
2023/03/03 22:27:22;;;;;;;;;;;8.50;58.80;;;;;;5055806;28;19915;-77
2023/03/03 22:29:47;;;;;;;;;;;8.50;58.80;;;;;;5062363;28;20297;-77
2023/03/03 22:32:13;;;;;;;;;;;8.50;58.80;;;;;;5065312;28;19917;-77
2023/03/03 22:34:38;;;;;;;;;;;8.50;58.80;;;;;;5063862;28;19908;-77
2023/03/03 22:37:04;;;;;;;;;;;8.50;58.80;;;;;;5063484;28;19909;-78
2023/03/03 22:39:29;;;;;;;;;;;8.40;58.80;;;;;;5064811;28;20374;-76
2023/03/03 22:41:55;;;;;;;;;;;8.40;58.80;;;;;;5066232;28;19909;-77
2023/03/03 22:44:20;;;;;;;;;;;8.40;58.80;;;;;;5074113;28;19908;-76
2023/03/03 22:46:46;;;;;;;;;;;8.40;58.80;;;;;;5074426;28;19916;-77
2023/03/03 22:49:11;;;;;;;;;;;8.40;58.80;;;;;;5074158;28;19908;-76
2023/03/03 22:51:37;;;;;;;;;;;8.40;58.80;;;;;;5074138;28;20281;-76
2023/03/03 22:54:03;;;;;;;;;;;8.50;58.80;;;;;;5073946;28;20270;-77
2023/03/03 22:56:29;;;;;;;;;;;8.40;58.80;;;;;;5074148;28;19908;-76
2023/03/03 22:58:55;;;;;;;;;;;8.40;58.80;;;;;;5061111;28;19920;-76
2023/03/03 23:01:20;;;;;;;;;;;8.40;58.80;;;;;;5054024;28;20004;-76
2023/03/03 23:03:46;;;;;;;;;;;8.40;58.80;;;;;;5053987;28;19909;-77
2023/03/03 23:06:11;;;;;;;;;;;8.40;58.80;;;;;;5053861;28;20007;-76
2023/03/03 23:08:37;;;;;;;;;;;8.40;58.80;;;;;;5053770;28;19958;-76
2023/03/03 23:11:02;;;;;;;;;;;8.40;58.80;;;;;;5053458;28;19929;-76
2023/03/03 23:13:28;;;;;;;;;;;8.40;58.80;;;;;;5053993;28;20650;-76